createdAt,value
2023-03-14T00:02:22.846Z,80.24
2023-03-14T00:07:29.986Z,80.31
2023-03-14T00:12:33.586Z,80.13
2023-03-14T00:17:39.557Z,79.77
2023-03-14T00:22:42.875Z,79.70
2023-03-14T00:27:45.913Z,79.57
2023-03-14T00:32:49.505Z,79.43
2023-03-14T00:37:51.851Z,80.16
2023-03-14T00:42:58.651Z,79.18
2023-03-14T00:48:02.768Z,78.93
2023-03-14T00:53:25.189Z,79.02
2023-03-14T00:58:27.442Z,79.44
2023-03-14T01:03:29.632Z,78.98
2023-03-14T01:08:31.674Z,79.33
2023-03-14T01:13:33.963Z,77.96
2023-03-14T01:18:40.039Z,77.93
2023-03-14T01:23:43.623Z,77.39
2023-03-14T01:28:47.127Z,78.60
2023-03-14T01:33:52.254Z,79.56
2023-03-14T01:38:55.273Z,79.80
2023-03-14T01:43:59.400Z,79.77
2023-03-14T01:49:04.911Z,78.93
2023-03-14T01:54:15.905Z,79.56
2023-03-14T01:59:20.091Z,76.96
2023-03-14T02:04:23.999Z,77.21
2023-03-14T02:09:26.359Z,79.07
2023-03-14T02:14:35.250Z,79.82
2023-03-14T02:20:47.273Z,80.77
2023-03-14T02:26:09.893Z,80.94
2023-03-14T02:31:16.201Z,80.60
2023-03-14T02:36:21.701Z,80.32
2023-03-14T02:41:23.847Z,80.48
2023-03-14T02:46:33.820Z,80.56
2023-03-14T02:51:36.848Z,82.88
2023-03-14T02:56:42.363Z,81.86
2023-03-14T03:01:48.126Z,81.16
2023-03-14T03:06:50.804Z,81.05
2023-03-14T03:11:53.461Z,81.26
2023-03-14T03:16:58.108Z,81.35
2023-03-14T03:22:00.579Z,80.21
2023-03-14T03:27:03.351Z,79.71
2023-03-14T03:32:06.040Z,80.12
2023-03-14T03:37:08.365Z,78.30
2023-03-14T03:42:15.925Z,77.28
2023-03-14T03:47:19.347Z,75.65
2023-03-14T03:52:21.689Z,76.09
2023-03-14T03:57:24.541Z,76.99
2023-03-14T04:02:36.509Z,78.31
2023-03-14T04:07:59.169Z,79.44
2023-03-14T04:13:03.619Z,80.37
2023-03-14T04:18:08.135Z,80.78
2023-03-14T04:23:13.019Z,80.38
2023-03-14T04:28:15.586Z,80.82
2023-03-14T04:33:18.445Z,81.13
2023-03-14T04:38:27.969Z,81.22
2023-03-14T04:43:31.363Z,81.59
2023-03-14T04:48:39.988Z,81.77
2023-03-14T04:53:43.629Z,81.98
2023-03-14T04:58:48.319Z,82.07
2023-03-14T05:03:52.730Z,82.11
2023-03-14T05:09:17.629Z,82.32
2023-03-14T05:14:58.175Z,82.63
2023-03-14T05:20:23.797Z,82.60
2023-03-14T05:25:45.712Z,82.69
2023-03-14T05:30:50.798Z,82.90
2023-03-14T05:36:12.130Z,82.95
2023-03-14T05:41:30.988Z,82.89
2023-03-14T05:46:35.762Z,82.77
2023-03-14T05:51:57.010Z,82.83
2023-03-14T05:57:18.064Z,82.80
2023-03-14T06:02:48.152Z,83.04
2023-03-14T06:07:55.558Z,83.05
2023-03-14T06:12:58.114Z,82.67
2023-03-14T06:18:01.187Z,82.59
2023-03-14T06:23:04.696Z,82.70
2023-03-14T06:28:07.727Z,81.82
2023-03-14T06:33:11.078Z,81.21
2023-03-14T06:38:13.174Z,75.63
2023-03-14T06:43:15.515Z,78.31
2023-03-14T06:48:20.060Z,77.16
2023-03-14T06:53:26.450Z,74.97
2023-03-14T06:58:29.647Z,75.14
2023-03-14T07:03:32.724Z,74.33
2023-03-14T07:08:36.229Z,70.30
2023-03-14T07:13:42.092Z,66.32
2023-03-14T07:18:46.511Z,64.70
2023-03-14T07:23:51.407Z,65.52
2023-03-14T07:28:55.259Z,65.89
2023-03-14T07:33:58.414Z,65.00
2023-03-14T07:39:05.415Z,63.63
2023-03-14T07:44:27.013Z,61.34
2023-03-14T07:49:29.777Z,60.69
2023-03-14T07:54:32.078Z,59.82
2023-03-14T07:59:34.754Z,60.28
2023-03-14T08:04:41.488Z,60.67
2023-03-14T08:09:59.736Z,58.56
2023-03-14T08:15:24.875Z,57.23
2023-03-14T08:20:29.531Z,58.33
2023-03-14T08:25:35.362Z,58.21
2023-03-14T08:30:38.433Z,57.58
2023-03-14T08:35:40.897Z,57.07
2023-03-14T08:40:43.101Z,56.89
2023-03-14T08:45:46.104Z,57.08
2023-03-14T08:50:49.092Z,57.06
2023-03-14T08:55:55.545Z,58.01
2023-03-14T09:01:27.348Z,57.82
2023-03-14T09:06:29.716Z,58.51
2023-03-14T09:11:32.106Z,58.29
2023-03-14T09:16:35.466Z,57.84
2023-03-14T09:21:39.868Z,56.64
2023-03-14T09:26:42.443Z,56.94
2023-03-14T09:31:44.973Z,57.26
2023-03-14T09:36:47.386Z,57.15
2023-03-14T09:41:55.346Z,55.47
2023-03-14T09:47:05.320Z,55.46
2023-03-14T09:52:30.463Z,55.00
2023-03-14T09:57:36.616Z,54.70
2023-03-14T10:02:47.393Z,55.51
2023-03-14T10:07:55.456Z,56.02
2023-03-14T10:13:17.634Z,57.18
2023-03-14T10:18:20.287Z,57.91
2023-03-14T10:23:34.840Z,59.12
2023-03-14T10:28:52.531Z,59.63
2023-03-14T10:34:18.525Z,60.32
2023-03-14T10:39:45.477Z,60.66
2023-03-14T10:44:56.906Z,61.70
2023-03-14T10:50:30.204Z,60.47
2023-03-14T10:55:44.265Z,60.06
2023-03-14T11:00:56.183Z,60.23
2023-03-14T11:06:14.060Z,60.58
2023-03-14T11:11:27.893Z,61.42
2023-03-14T11:16:51.744Z,61.71
2023-03-14T11:22:22.091Z,62.44
2023-03-14T11:27:30.232Z,63.06
2023-03-14T11:32:38.242Z,63.16
2023-03-14T11:37:50.451Z,63.27
2023-03-14T11:43:12.817Z,63.49
2023-03-14T11:48:42.306Z,64.10
2023-03-14T11:54:03.979Z,65.12
2023-03-14T11:59:16.255Z,65.63
2023-03-14T12:04:56.419Z,66.21
2023-03-14T12:09:58.405Z,66.70
2023-03-14T12:15:06.408Z,66.98
2023-03-14T12:20:36.691Z,67.22
2023-03-14T12:26:07.584Z,67.06
2023-03-14T12:32:21.737Z,66.93
2023-03-14T12:37:59.241Z,67.06
2023-03-14T12:43:34.185Z,66.82
2023-03-14T12:48:40.442Z,66.77
2023-03-14T12:54:22.325Z,67.25
2023-03-14T12:59:34.710Z,67.49
2023-03-14T13:04:46.636Z,69.40
2023-03-14T13:09:58.539Z,67.94
2023-03-14T13:15:35.242Z,68.29
2023-03-14T13:20:51.251Z,68.67
2023-03-14T13:26:01.809Z,69.17
2023-03-14T13:31:25.478Z,69.80
2023-03-14T13:36:28.911Z,70.54
2023-03-14T13:41:31.798Z,71.36
2023-03-14T13:46:38.049Z,72.00
2023-03-14T13:51:44.357Z,72.45
2023-03-14T13:56:48.589Z,72.96
2023-03-14T14:01:54.776Z,73.56
2023-03-14T14:07:00.152Z,73.69
2023-03-14T14:12:16.779Z,73.89
2023-03-14T14:17:25.505Z,73.83
2023-03-14T14:22:28.406Z,74.06
2023-03-14T14:27:38.923Z,74.35
2023-03-14T14:32:41.543Z,74.75
2023-03-14T14:37:45.425Z,74.82
2023-03-14T14:42:48.460Z,74.48
2023-03-14T14:48:20.370Z,74.73
2023-03-14T14:53:38.337Z,75.22
2023-03-14T14:58:47.144Z,75.37
2023-03-14T15:03:53.512Z,75.82
2023-03-14T15:08:56.244Z,76.08
2023-03-14T15:13:58.622Z,76.00
2023-03-14T15:19:18.018Z,76.21
2023-03-14T15:24:28.590Z,76.54
2023-03-14T15:29:33.777Z,76.65
2023-03-14T15:34:36.558Z,76.71
2023-03-14T15:39:38.990Z,77.12
2023-03-14T15:44:41.611Z,78.21
2023-03-14T15:49:43.829Z,78.59
2023-03-14T15:54:46.577Z,78.72
2023-03-14T15:59:51.262Z,77.23
2023-03-14T16:04:53.991Z,76.01
2023-03-14T16:09:56.669Z,76.12
2023-03-14T16:14:59.299Z,76.22
2023-03-14T16:20:02.484Z,76.55
2023-03-14T16:25:10.802Z,76.77
2023-03-14T16:30:16.749Z,76.75
2023-03-14T16:35:19.571Z,76.88
2023-03-14T16:40:22.059Z,76.93
2023-03-14T16:45:25.736Z,76.75
2023-03-14T16:50:30.600Z,76.84
2023-03-14T16:55:33.117Z,77.14
2023-03-14T17:00:35.518Z,77.52
2023-03-14T17:05:38.571Z,77.79
2023-03-14T17:10:41.641Z,78.15
2023-03-14T17:15:46.861Z,78.32
2023-03-14T17:20:54.173Z,78.51
2023-03-14T17:25:57.054Z,78.36
2023-03-14T17:31:08.080Z,78.06
2023-03-14T17:36:13.929Z,78.13
2023-03-14T17:41:16.467Z,78.02
2023-03-14T17:46:20.040Z,77.79
2023-03-14T17:51:22.987Z,77.78
2023-03-14T17:56:27.122Z,78.01
2023-03-14T18:01:30.208Z,78.13
2023-03-14T18:06:35.774Z,77.82
2023-03-14T18:11:44.244Z,77.78
2023-03-14T18:16:50.019Z,77.74
2023-03-14T18:21:53.878Z,77.73
2023-03-14T18:26:59.778Z,77.69
2023-03-14T18:32:04.555Z,77.51
2023-03-14T18:37:08.777Z,77.56
2023-03-14T18:42:13.023Z,77.21
2023-03-14T18:47:18.039Z,77.59
2023-03-14T18:52:20.971Z,77.35
2023-03-14T18:57:23.321Z,77.46
2023-03-14T19:02:36.561Z,77.66
2023-03-14T19:07:41.277Z,77.79
2023-03-14T19:12:43.527Z,77.92
2023-03-14T19:17:47.314Z,78.14
2023-03-14T19:22:52.163Z,78.12
2023-03-14T19:27:56.207Z,78.09
2023-03-14T19:33:00.245Z,77.93
2023-03-14T19:38:04.784Z,78.05
2023-03-14T19:43:12.160Z,78.21
2023-03-14T19:48:14.548Z,78.05
2023-03-14T19:53:17.198Z,77.74
2023-03-14T19:58:20.168Z,77.64
2023-03-14T20:03:24.228Z,77.54
2023-03-14T20:08:30.064Z,77.34
2023-03-14T20:13:35.650Z,77.35
2023-03-14T20:18:39.884Z,77.18
2023-03-14T20:23:44.199Z,77.23
2023-03-14T20:28:47.339Z,76.96
2023-03-14T20:33:51.488Z,76.94
2023-03-14T20:38:53.762Z,76.80
2023-03-14T20:43:56.543Z,76.77
2023-03-14T20:48:58.463Z,76.56
2023-03-14T20:54:01.185Z,76.51
2023-03-14T20:59:24.044Z,76.44
2023-03-14T21:04:26.387Z,76.50
2023-03-14T21:09:30.847Z,76.60
2023-03-14T21:14:33.465Z,76.90
2023-03-14T21:19:35.745Z,76.97
2023-03-14T21:24:38.188Z,76.90
2023-03-14T21:29:40.745Z,77.12
2023-03-14T21:34:43.154Z,77.40
2023-03-14T21:39:45.238Z,77.31
2023-03-14T21:44:48.774Z,77.31
2023-03-14T21:49:51.719Z,77.21
2023-03-14T21:54:59.692Z,77.15
2023-03-14T22:00:06.760Z,76.97
2023-03-14T22:05:13.028Z,77.03
2023-03-14T22:10:20.818Z,76.83
2023-03-14T22:15:48.190Z,76.85
2023-03-14T22:20:50.679Z,76.84
2023-03-14T22:25:52.813Z,75.38
2023-03-14T22:30:55.748Z,76.05
2023-03-14T22:35:58.193Z,78.15
2023-03-14T22:41:05.338Z,79.53
2023-03-14T22:46:09.935Z,80.47
2023-03-14T22:51:32.214Z,79.65
2023-03-14T22:56:34.605Z,77.47
2023-03-14T23:01:40.231Z,76.91
2023-03-14T23:06:45.171Z,76.09
2023-03-14T23:11:50.806Z,75.75
2023-03-14T23:16:56.290Z,76.03
2023-03-14T23:21:58.875Z,76.45
2023-03-14T23:27:01.008Z,76.32
2023-03-14T23:32:03.676Z,76.78
2023-03-14T23:37:05.861Z,77.10
2023-03-14T23:42:09.408Z,77.48
2023-03-14T23:47:11.738Z,77.30
2023-03-14T23:52:14.293Z,77.36
2023-03-14T23:57:16.608Z,76.72
